Eslamshahr, Iran
Current Conditions -  °F | °C
As of 7:00 AM on Tuesday 27 Jan 2015 (Local Time) from OIIE Reporting Station
Clear Clear  
Wind Chill: 30°   Ceiling: Unl
Heat Index: 36°   Visibility: 6mi
Dew Point: 18°   Wind: 7mph
Humidity: 48%   Direction: 290°WNW
Pressure: 30.12"   Gusts: NA
Location:  35.54°N, 51.2°E
Report Text: OIIE 270300Z 29006KT CAVOK 02/M08 Q1020
Loading
Personal Weather Stations






























Interactive Weather Map New forecast layout! Learn more

10-Day Weather Forecast

Advertisements
Track Severe Weather on mobile